Time;durP1;ratioP1;P1;durP2;ratioP2;P2;SDS_P1;SDS_P2;PMS_P1;PMS_P2;Temp;Humidity;BMP_temperature;BMP_pressure;BME280_temperature;BME280_humidity;BME280_pressure;Samples;Min_cycle;Max_cycle;Signal;HPM_P1;HPM_P2
2022/12/11 00:00:40;;;;;;;15.38;8.93;;;;;;;;;;10502011;28;19956;-86
2022/12/11 00:05:45;;;;;;;16.57;9.30;;;;;;;;;;10515965;28;20459;-86
2022/12/11 00:10:49;;;;;;;16.90;9.65;;;;;;;;;;10500126;28;20048;-86
2022/12/11 00:15:54;;;;;;;18.13;9.00;;;;;;;;;;10507682;28;20227;-86
2022/12/11 00:21:07;;;;;;;17.45;9.15;;;;;;;;;;10511255;28;20048;-86
2022/12/11 00:26:13;;;;;;;17.75;9.75;;;;;;;;;;10514213;28;20044;-86
2022/12/11 00:31:18;;;;;;;;;;;;;;;;;;10514213;28;20287;-87
2022/12/11 00:36:24;;;;;;;16.23;8.57;;;;;;;;;;10523759;28;19920;-84
2022/12/11 00:41:27;;;;;;;16.23;8.52;;;;;;;;;;10498790;28;20068;-84
2022/12/11 00:46:32;;;;;;;13.98;7.85;;;;;;;;;;10500605;28;20040;-84
2022/12/11 00:51:35;;;;;;;15.18;7.95;;;;;;;;;;10504232;28;20594;-89
2022/12/11 00:56:39;;;;;;;19.02;9.02;;;;;;;;;;10516633;28;20491;-86
2022/12/11 01:01:44;;;;;;;18.60;9.25;;;;;;;;;;10524695;28;20051;-87
2022/12/11 01:06:47;;;;;;;15.55;8.18;;;;;;;;;;10526002;28;20040;-91
2022/12/11 01:11:51;;;;;;;14.40;7.68;;;;;;;;;;10499823;28;20062;-84
2022/12/11 01:16:57;;;;;;;17.95;8.82;;;;;;;;;;10497589;28;20083;-84
2022/12/11 01:22:00;;;;;;;19.23;9.18;;;;;;;;;;10497290;28;20046;-85
2022/12/11 01:27:04;;;;;;;19.17;10.02;;;;;;;;;;10498383;28;20039;-84
2022/12/11 01:32:09;;;;;;;18.42;8.73;;;;;;;;;;10495982;28;20146;-84
2022/12/11 01:37:13;;;;;;;16.95;8.88;;;;;;;;;;10497317;28;20040;-84
2022/12/11 01:42:19;;;;;;;18.17;9.13;;;;;;;;;;10494339;28;20044;-85
2022/12/11 01:47:24;;;;;;;16.48;8.10;;;;;;;;;;10495858;28;20062;-84
2022/12/11 01:52:27;;;;;;;17.77;8.75;;;;;;;;;;10496390;28;20044;-85
2022/12/11 01:57:31;;;;;;;13.45;7.55;;;;;;;;;;10497085;28;20044;-85
2022/12/11 02:02:35;;;;;;;15.05;7.93;;;;;;;;;;10483603;28;20044;-85
2022/12/11 02:07:43;;;;;;;14.93;8.10;;;;;;;;;;10502205;28;20701;-84
2022/12/11 02:12:55;;;;;;;14.13;7.68;;;;;;;;;;10521678;28;20035;-84
2022/12/11 02:18:11;;;;;;;16.67;8.50;;;;;;;;;;10530647;28;20051;-85
2022/12/11 02:23:36;;;;;;;13.07;8.15;;;;;;;;;;10526029;28;20555;-84
2022/12/11 02:28:46;;;;;;;14.40;7.70;;;;;;;;;;10512236;28;20536;-85
2022/12/11 02:33:56;;;;;;;15.93;7.88;;;;;;;;;;10519672;28;20040;-84
2022/12/11 02:39:02;;;;;;;13.52;7.65;;;;;;;;;;10505528;28;20086;-85
2022/12/11 02:44:07;;;;;;;16.48;8.32;;;;;;;;;;10529705;28;20074;-84
2022/12/11 02:49:13;;;;;;;12.90;7.13;;;;;;;;;;10516207;28;20096;-84
2022/12/11 02:54:20;;;;;;;12.93;7.47;;;;;;;;;;10510700;28;20055;-84
2022/12/11 03:04:42;;;;;;;14.95;7.72;;;;;;;;;;10494958;28;20051;-85
2022/12/11 03:09:47;;;;;;;14.07;7.55;;;;;;;;;;10501621;28;20071;-84
2022/12/11 03:14:52;;;;;;;14.63;7.07;;;;;;;;;;10488586;28;20769;-85
2022/12/11 03:20:03;;;;;;;13.13;7.22;;;;;;;;;;10503225;28;20571;-85
2022/12/11 03:25:10;;;;;;;14.35;7.30;;;;;;;;;;10500739;28;20048;-84
2022/12/11 03:30:18;;;;;;;13.23;7.03;;;;;;;;;;10500918;28;20408;-85
2022/12/11 03:35:27;;;;;;;14.98;7.53;;;;;;;;;;10503516;28;20036;-84
2022/12/11 03:40:37;;;;;;;15.00;7.85;;;;;;;;;;10501170;28;20765;-85
2022/12/11 03:45:43;;;;;;;15.57;7.90;;;;;;;;;;10499256;28;20048;-84
2022/12/11 03:50:47;;;;;;;12.00;7.13;;;;;;;;;;10500497;28;20044;-84
2022/12/11 03:55:57;;;;;;;13.70;7.63;;;;;;;;;;10493197;28;20052;-84
2022/12/11 04:01:01;;;;;;;12.52;7.35;;;;;;;;;;10501578;28;20048;-84
2022/12/11 04:06:05;;;;;;;12.65;7.10;;;;;;;;;;10500764;28;20047;-85
2022/12/11 04:16:32;;;;;;;14.55;7.78;;;;;;;;;;10500771;28;20728;-85
2022/12/11 04:26:56;;;;;;;12.88;6.80;;;;;;;;;;10500350;28;20050;-84
2022/12/11 04:32:01;;;;;;;16.13;7.68;;;;;;;;;;10501395;28;20044;-85
2022/12/11 04:37:04;;;;;;;12.88;6.60;;;;;;;;;;10500691;28;20051;-85
2022/12/11 04:42:08;;;;;;;10.10;6.38;;;;;;;;;;10499994;28;20723;-85
2022/12/11 04:47:13;;;;;;;13.45;7.07;;;;;;;;;;10499538;28;20428;-85
2022/12/11 04:52:18;;;;;;;11.50;6.80;;;;;;;;;;10499887;28;20055;-84
2022/12/11 04:57:21;;;;;;;12.27;6.40;;;;;;;;;;10501989;28;20131;-84
2022/12/11 05:02:26;;;;;;;11.23;6.80;;;;;;;;;;10498306;28;20044;-85
2022/12/11 05:07:30;;;;;;;13.30;6.63;;;;;;;;;;10500046;28;20071;-84
2022/12/11 05:12:33;;;;;;;13.00;7.32;;;;;;;;;;10498738;28;20048;-84
2022/12/11 05:17:38;;;;;;;13.20;7.13;;;;;;;;;;10494099;28;20127;-85
2022/12/11 05:22:41;;;;;;;13.02;7.05;;;;;;;;;;10498026;28;20055;-85
2022/12/11 05:27:45;;;;;;;13.02;6.55;;;;;;;;;;10498467;28;20040;-84
2022/12/11 05:32:50;;;;;;;12.30;6.97;;;;;;;;;;10489089;28;20127;-84
2022/12/11 05:37:53;;;;;;;13.07;7.35;;;;;;;;;;10518824;28;20044;-90
2022/12/11 05:42:57;;;;;;;12.88;6.95;;;;;;;;;;10522180;28;20147;-91
2022/12/11 05:48:03;;;;;;;11.35;6.57;;;;;;;;;;10528871;28;20047;-91
2022/12/11 05:53:06;;;;;;;11.17;6.40;;;;;;;;;;10512431;28;20044;-84
2022/12/11 05:58:10;;;;;;;13.35;6.75;;;;;;;;;;10507024;28;20041;-84
2022/12/11 06:03:15;;;;;;;13.63;6.70;;;;;;;;;;10505085;28;20048;-85
2022/12/11 06:08:19;;;;;;;12.38;5.88;;;;;;;;;;10512252;28;20044;-87
2022/12/11 06:13:22;;;;;;;10.70;6.43;;;;;;;;;;10517070;28;20068;-87
2022/12/11 06:18:27;;;;;;;11.68;6.22;;;;;;;;;;10521943;28;20123;-86
2022/12/11 06:23:31;;;;;;;11.10;6.28;;;;;;;;;;10516100;28;20130;-92
2022/12/11 06:28:34;;;;;;;11.52;6.57;;;;;;;;;;10513914;28;20401;-87
2022/12/11 06:33:40;;;;;;;11.73;6.25;;;;;;;;;;10523994;28;20542;-87
2022/12/11 06:38:43;;;;;;;10.53;6.17;;;;;;;;;;10520380;28;20036;-88
2022/12/11 06:43:47;;;;;;;16.85;8.10;;;;;;;;;;10519620;28;20123;-87
2022/12/11 06:48:52;;;;;;;12.05;7.20;;;;;;;;;;10509247;28;20147;-88
2022/12/11 06:53:57;;;;;;;14.77;7.68;;;;;;;;;;10527151;28;20044;-88
2022/12/11 06:59:01;;;;;;;12.88;6.85;;;;;;;;;;10527232;28;20098;-90
2022/12/11 07:04:09;;;;;;;13.10;6.53;;;;;;;;;;10516306;28;20058;-88
2022/12/11 07:09:13;;;;;;;13.63;7.20;;;;;;;;;;10525144;28;20192;-88
2022/12/11 07:14:16;;;;;;;11.95;6.68;;;;;;;;;;10512697;28;20044;-87
2022/12/11 07:19:21;;;;;;;11.82;6.93;;;;;;;;;;10514708;28;20483;-89
2022/12/11 07:24:25;;;;;;;14.90;7.28;;;;;;;;;;10513713;28;20256;-86
2022/12/11 07:29:29;;;;;;;14.23;7.35;;;;;;;;;;10517061;28;20535;-87
2022/12/11 07:34:34;;;;;;;12.00;6.85;;;;;;;;;;10503142;28;20397;-87
2022/12/11 07:39:37;;;;;;;13.98;7.40;;;;;;;;;;10520408;28;20510;-87
2022/12/11 07:44:41;;;;;;;13.57;7.60;;;;;;;;;;10520074;28;20042;-89
2022/12/11 07:49:46;;;;;;;15.63;7.15;;;;;;;;;;10514689;28;20036;-86
2022/12/11 07:54:52;;;;;;;14.88;7.32;;;;;;;;;;10523596;22;20132;-80
2022/12/11 08:00:01;;;;;;;11.80;6.15;;;;;;;;;;10294624;28;20038;-81
2022/12/11 08:18:30;;;;;;;11.32;5.95;;;;;;;;;;10278775;23;20665;-82
2022/12/11 08:23:35;;;;;;;16.58;7.95;;;;;;;;;;10286700;28;20076;-81
2022/12/11 08:28:39;;;;;;;14.18;7.40;;;;;;;;;;10277586;28;20047;-81
2022/12/11 08:33:43;;;;;;;14.05;7.65;;;;;;;;;;10245691;28;20586;-82
2022/12/11 08:38:49;;;;;;;20.23;10.43;;;;;;;;;;10265526;28;20094;-81
2022/12/11 08:43:53;;;;;;;16.40;8.47;;;;;;;;;;10279395;28;20497;-81
2022/12/11 08:48:57;;;;;;;16.33;7.85;;;;;;;;;;10285331;28;20042;-82
2022/12/11 08:54:02;;;;;;;12.80;6.93;;;;;;;;;;10292268;28;20049;-82
2022/12/11 08:59:06;;;;;;;13.98;7.32;;;;;;;;;;10298813;28;20046;-82
2022/12/11 09:04:09;;;;;;;12.30;6.72;;;;;;;;;;10286227;28;20055;-83
2022/12/11 09:09:14;;;;;;;12.65;6.80;;;;;;;;;;10267095;28;20046;-82
2022/12/11 09:14:18;;;;;;;11.77;6.13;;;;;;;;;;10290401;28;20816;-82
2022/12/11 09:19:21;;;;;;;10.50;5.72;;;;;;;;;;10280146;28;20047;-83
2022/12/11 09:24:27;;;;;;;12.20;6.60;;;;;;;;;;10278058;28;20053;-82
2022/12/11 09:29:30;;;;;;;15.05;8.88;;;;;;;;;;10324411;28;20045;-82
2022/12/11 09:34:34;;;;;;;16.38;7.45;;;;;;;;;;10289139;28;20142;-82
2022/12/11 09:39:39;;;;;;;12.60;6.90;;;;;;;;;;10264309;28;20039;-82
2022/12/11 09:44:46;;;;;;;12.93;6.97;;;;;;;;;;10293138;28;20077;-82
2022/12/11 09:49:52;;;;;;;12.27;6.22;;;;;;;;;;10292424;28;20058;-81
2022/12/11 09:55:01;;;;;;;9.85;5.47;;;;;;;;;;10306897;28;20056;-83
2022/12/11 10:00:23;;;;;;;13.43;6.20;;;;;;;;;;10307002;28;20443;-83
2022/12/11 10:05:32;;;;;;;10.45;5.88;;;;;;;;;;10306708;28;20053;-83
2022/12/11 10:10:43;;;;;;;9.52;5.47;;;;;;;;;;10310365;28;20057;-83
2022/12/11 10:15:52;;;;;;;10.70;5.63;;;;;;;;;;10292852;28;20047;-82
2022/12/11 10:20:56;;;;;;;9.75;5.47;;;;;;;;;;10286215;28;20100;-83
2022/12/11 10:26:06;;;;;;;15.88;7.45;;;;;;;;;;10289567;28;20150;-80
2022/12/11 10:31:17;;;;;;;11.80;5.97;;;;;;;;;;10302459;28;20105;-81
2022/12/11 10:36:25;;;;;;;11.27;6.15;;;;;;;;;;10319423;28;20058;-82
2022/12/11 10:41:38;;;;;;;9.60;5.47;;;;;;;;;;10289999;28;20078;-82
2022/12/11 10:46:42;;;;;;;14.20;7.78;;;;;;;;;;10313384;28;20054;-82
2022/12/11 10:51:45;;;;;;;11.07;5.95;;;;;;;;;;10289603;28;20078;-82
2022/12/11 10:56:50;;;;;;;11.60;6.45;;;;;;;;;;10288802;28;20047;-82
2022/12/11 11:01:54;;;;;;;7.93;4.63;;;;;;;;;;10317565;28;20191;-83
2022/12/11 11:07:12;;;;;;;10.82;5.70;;;;;;;;;;10319694;28;20437;-83
2022/12/11 11:12:25;;;;;;;10.30;5.47;;;;;;;;;;10316353;28;20136;-82
2022/12/11 11:17:31;;;;;;;9.63;5.47;;;;;;;;;;10303947;28;20461;-81
2022/12/11 11:22:41;;;;;;;13.05;6.22;;;;;;;;;;10319028;28;20039;-82
2022/12/11 11:27:49;;;;;;;10.15;5.35;;;;;;;;;;10298745;28;20141;-82
2022/12/11 11:32:56;;;;;;;9.02;4.63;;;;;;;;;;10295480;28;20046;-82
2022/12/11 11:38:16;;;;;;;11.27;5.75;;;;;;;;;;10312091;28;20047;-80
2022/12/11 11:43:29;;;;;;;9.23;4.97;;;;;;;;;;10310953;28;20070;-81
2022/12/11 11:48:38;;;;;;;9.15;4.90;;;;;;;;;;10309248;28;20070;-82
2022/12/11 11:53:44;;;;;;;8.73;4.97;;;;;;;;;;10306997;28;20129;-81
2022/12/11 11:58:55;;;;;;;8.98;4.45;;;;;;;;;;10300696;28;20042;-82
2022/12/11 12:04:00;;;;;;;8.90;4.72;;;;;;;;;;10286248;28;20133;-81
2022/12/11 12:09:17;;;;;;;8.88;5.05;;;;;;;;;;10295037;28;20047;-81
2022/12/11 12:14:30;;;;;;;9.75;4.95;;;;;;;;;;10313396;28;20705;-81
2022/12/11 12:20:03;;;;;;;9.90;5.00;;;;;;;;;;10313474;28;20038;-82
2022/12/11 12:25:18;;;;;;;8.90;4.95;;;;;;;;;;10311660;28;20126;-81
2022/12/11 12:30:23;;;;;;;7.82;4.38;;;;;;;;;;10290368;28;20573;-81
2022/12/11 12:35:35;;;;;;;9.57;5.28;;;;;;;;;;10310271;28;20058;-83
2022/12/11 12:40:51;;;;;;;10.02;5.03;;;;;;;;;;10312137;28;20038;-83
2022/12/11 12:46:06;;;;;;;8.05;4.40;;;;;;;;;;10309034;28;20693;-82
2022/12/11 12:51:14;;;;;;;8.73;4.82;;;;;;;;;;10317699;28;20125;-81
2022/12/11 12:56:18;;;;;;;7.57;4.32;;;;;;;;;;10314568;28;20109;-82
2022/12/11 13:01:24;;;;;;;10.73;5.30;;;;;;;;;;10317626;28;20643;-81
2022/12/11 13:06:36;;;;;;;11.80;5.07;;;;;;;;;;10295434;28;20684;-82
2022/12/11 13:11:40;;;;;;;11.52;5.05;;;;;;;;;;10283498;28;20123;-82
2022/12/11 13:16:47;;;;;;;8.25;4.68;;;;;;;;;;10299462;28;20513;-81
2022/12/11 13:21:57;;;;;;;8.68;5.25;;;;;;;;;;10279456;28;20054;-81
2022/12/11 13:27:10;;;;;;;8.13;4.47;;;;;;;;;;10284052;28;20112;-81
2022/12/11 13:32:24;;;;;;;6.22;4.18;;;;;;;;;;10287465;28;20043;-81
2022/12/11 13:37:31;;;;;;;9.48;4.53;;;;;;;;;;10294594;28;20057;-82
2022/12/11 13:42:40;;;;;;;8.55;4.70;;;;;;;;;;10290074;28;20047;-82
2022/12/11 13:47:46;;;;;;;7.93;4.57;;;;;;;;;;10302680;28;20046;-82
2022/12/11 13:52:53;;;;;;;;;;;;;;;;;;10289190;28;20034;-81
2022/12/11 13:57:58;;;;;;;8.30;4.90;;;;;;;;;;10293522;28;19929;-81
2022/12/11 14:03:06;;;;;;;8.98;4.80;;;;;;;;;;10297149;28;20097;-82
2022/12/11 14:08:12;;;;;;;9.88;5.45;;;;;;;;;;10270851;28;20043;-82
2022/12/11 14:13:21;;;;;;;9.00;4.82;;;;;;;;;;10270701;28;20061;-82
2022/12/11 14:18:29;;;;;;;8.57;5.13;;;;;;;;;;10304159;28;20049;-82
2022/12/11 14:23:34;;;;;;;7.03;3.80;;;;;;;;;;10283806;28;20039;-82
2022/12/11 14:28:41;;;;;;;7.13;3.78;;;;;;;;;;10284654;28;20057;-82
2022/12/11 14:33:51;;;;;;;7.53;4.07;;;;;;;;;;10300485;28;20042;-82
2022/12/11 14:38:58;;;;;;;7.85;4.03;;;;;;;;;;10276603;28;20046;-81
2022/12/11 14:44:04;;;;;;;7.10;4.22;;;;;;;;;;11925954;23;20033;-85
2022/12/11 14:49:18;;;;;;;9.13;4.60;;;;;;;;;;10303190;28;20050;-84
2022/12/11 14:54:29;;;;;;;7.78;4.38;;;;;;;;;;10321896;28;20125;-85
2022/12/11 14:59:35;;;;;;;6.43;3.97;;;;;;;;;;10327809;28;20042;-86
2022/12/11 15:04:40;;;;;;;8.52;4.30;;;;;;;;;;10298200;28;20098;-86
2022/12/11 15:09:47;;;;;;;8.60;4.28;;;;;;;;;;10318590;28;20046;-83
2022/12/11 15:14:53;;;;;;;6.80;4.25;;;;;;;;;;10311924;28;20065;-81
2022/12/11 15:20:01;;;;;;;;;;;;;;;;;;10319877;28;20444;-82
2022/12/11 15:25:05;;;;;;;6.53;3.75;;;;;;;;;;10293327;28;20364;-82
2022/12/11 15:30:34;;;;;;;6.63;4.20;;;;;;;;;;10286171;28;20038;-84
2022/12/11 15:35:51;;;;;;;6.47;4.07;;;;;;;;;;10301296;28;20138;-84
2022/12/11 15:40:54;;;;;;;5.60;3.33;;;;;;;;;;10295085;28;20672;-81
2022/12/11 15:45:57;;;;;;;6.18;3.67;;;;;;;;;;10302223;28;20057;-83
2022/12/11 15:51:03;;;;;;;7.40;4.00;;;;;;;;;;10303180;28;20613;-83
2022/12/11 15:56:26;;;;;;;6.75;4.00;;;;;;;;;;10307652;28;20088;-83
2022/12/11 16:01:29;;;;;;;6.95;3.90;;;;;;;;;;10297834;28;20046;-85
2022/12/11 16:06:34;;;;;;;9.00;4.50;;;;;;;;;;10301281;28;20038;-84
2022/12/11 16:11:38;;;;;;;7.70;4.18;;;;;;;;;;10267116;28;20137;-83
2022/12/11 16:16:41;;;;;;;7.00;4.43;;;;;;;;;;10292063;28;20069;-82
2022/12/11 16:21:46;;;;;;;8.60;5.13;;;;;;;;;;10283766;28;20074;-83
2022/12/11 16:26:50;;;;;;;8.45;5.00;;;;;;;;;;10263437;28;20142;-82
2022/12/11 16:31:53;;;;;;;7.18;4.40;;;;;;;;;;10276354;28;20050;-82
2022/12/11 16:37:00;;;;;;;6.20;4.38;;;;;;;;;;10243720;28;20050;-82
2022/12/11 16:42:03;;;;;;;8.27;4.50;;;;;;;;;;10276881;28;20526;-89
2022/12/11 16:47:07;;;;;;;7.40;4.38;;;;;;;;;;10271169;28;20057;-83
2022/12/11 16:52:12;;;;;;;6.97;4.03;;;;;;;;;;10260968;28;20050;-83
2022/12/11 16:57:19;;;;;;;7.15;4.28;;;;;;;;;;10260088;28;20056;-82
2022/12/11 17:02:22;;;;;;;7.22;4.53;;;;;;;;;;10280380;28;20039;-82
2022/12/11 17:07:27;;;;;;;7.30;4.03;;;;;;;;;;10264647;28;20061;-85
2022/12/11 17:12:31;;;;;;;8.80;4.67;;;;;;;;;;10277837;28;20041;-85
2022/12/11 17:17:35;;;;;;;8.05;4.05;;;;;;;;;;10261195;28;20049;-85
2022/12/11 17:22:41;;;;;;;7.43;4.55;;;;;;;;;;10283327;28;20046;-83
2022/12/11 17:27:45;;;;;;;8.23;4.53;;;;;;;;;;10263188;28;20064;-83
2022/12/11 17:32:49;;;;;;;7.82;4.07;;;;;;;;;;10274429;28;20074;-83
2022/12/11 17:37:54;;;;;;;8.15;4.93;;;;;;;;;;10272534;28;20105;-86
2022/12/11 17:42:58;;;;;;;8.57;4.47;;;;;;;;;;10277366;28;20137;-85
2022/12/11 17:48:01;;;;;;;8.88;5.18;;;;;;;;;;10282369;28;20313;-86
2022/12/11 17:53:07;;;;;;;12.65;6.60;;;;;;;;;;10271791;28;20100;-83
2022/12/11 17:58:10;;;;;;;12.20;6.53;;;;;;;;;;10286864;28;20049;-83
2022/12/11 18:03:15;;;;;;;10.13;6.22;;;;;;;;;;10274321;28;20041;-83
2022/12/11 18:08:24;;;;;;;11.77;6.78;;;;;;;;;;10275098;28;20082;-82
2022/12/11 18:13:28;;;;;;;10.80;6.13;;;;;;;;;;10268322;28;20042;-82
2022/12/11 18:18:32;;;;;;;11.13;6.35;;;;;;;;;;10284773;28;20270;-85
2022/12/11 18:23:37;;;;;;;10.93;6.53;;;;;;;;;;10283189;28;20069;-85
2022/12/11 18:28:41;;;;;;;11.20;6.22;;;;;;;;;;10283275;28;20623;-87
2022/12/11 18:33:45;;;;;;;9.70;5.72;;;;;;;;;;10282527;28;20047;-87
2022/12/11 18:38:50;;;;;;;12.57;6.28;;;;;;;;;;10283778;28;20046;-84
2022/12/11 18:43:54;;;;;;;11.57;5.68;;;;;;;;;;10281376;28;20125;-85
2022/12/11 18:49:00;;;;;;;9.90;5.38;;;;;;;;;;10274287;28;20528;-85
2022/12/11 18:54:05;;;;;;;12.02;5.65;;;;;;;;;;10274413;28;20660;-82
2022/12/11 18:59:12;;;;;;;11.65;5.55;;;;;;;;;;10281357;28;20406;-82
2022/12/11 19:04:16;;;;;;;10.50;5.10;;;;;;;;;;10286297;28;20059;-82
2022/12/11 19:09:21;;;;;;;10.13;5.68;;;;;;;;;;10263476;28;20101;-83
2022/12/11 19:14:25;;;;;;;9.63;5.43;;;;;;;;;;10277652;28;20470;-82
2022/12/11 19:19:28;;;;;;;10.50;5.85;;;;;;;;;;10284006;28;20042;-85
2022/12/11 19:24:35;;;;;;;7.68;4.57;;;;;;;;;;10278765;28;20045;-88
2022/12/11 19:29:38;;;;;;;9.63;4.70;;;;;;;;;;10305747;28;20050;-88
2022/12/11 19:34:42;;;;;;;8.02;4.95;;;;;;;;;;10296416;28;20054;-87
2022/12/11 19:39:47;;;;;;;12.45;5.78;;;;;;;;;;10304125;28;20092;-91
2022/12/11 19:44:51;;;;;;;11.63;5.25;;;;;;;;;;10271068;28;20067;-90
2022/12/11 19:49:55;;;;;;;9.43;4.70;;;;;;;;;;10268769;28;20058;-83
2022/12/11 19:55:07;;;;;;;9.95;5.28;;;;;;;;;;10272523;28;20133;-84
2022/12/11 20:00:12;;;;;;;5.05;3.53;;;;;;;;;;10285226;28;20514;-85
2022/12/11 20:05:16;;;;;;;6.15;3.70;;;;;;;;;;10278072;28;20054;-85
2022/12/11 20:10:21;;;;;;;5.07;2.88;;;;;;;;;;10284494;28;20054;-84
2022/12/11 20:15:26;;;;;;;5.47;3.15;;;;;;;;;;10277282;28;20042;-83
2022/12/11 20:20:30;;;;;;;4.90;2.97;;;;;;;;;;10297023;28;20047;-83
2022/12/11 20:25:38;;;;;;;6.15;3.90;;;;;;;;;;10274180;28;20031;-86
2022/12/11 20:30:42;;;;;;;5.28;3.28;;;;;;;;;;10270110;28;20101;-87
2022/12/11 20:35:46;;;;;;;3.88;2.63;;;;;;;;;;10270516;28;20077;-89
2022/12/11 20:40:50;;;;;;;4.90;2.47;;;;;;;;;;10246812;28;20110;-83
2022/12/11 20:45:54;;;;;;;5.07;2.90;;;;;;;;;;10253173;28;20126;-82
2022/12/11 20:51:00;;;;;;;4.15;2.80;;;;;;;;;;10284445;28;20057;-84
2022/12/11 20:56:10;;;;;;;4.68;2.92;;;;;;;;;;10266849;28;20041;-85
2022/12/11 21:01:14;;;;;;;5.18;3.35;;;;;;;;;;10273203;28;20047;-84
2022/12/11 21:06:19;;;;;;;6.68;3.40;;;;;;;;;;10255460;28;20043;-85
2022/12/11 21:11:24;;;;;;;5.32;3.50;;;;;;;;;;10257555;28;20050;-85
2022/12/11 21:16:28;;;;;;;5.35;3.33;;;;;;;;;;10256188;28;20042;-84
2022/12/11 21:21:32;;;;;;;5.50;3.33;;;;;;;;;;10269547;28;20074;-86
2022/12/11 21:26:37;;;;;;;5.18;2.88;;;;;;;;;;10273831;28;20045;-84
2022/12/11 21:31:40;;;;;;;5.40;3.28;;;;;;;;;;10242781;28;20067;-86
2022/12/11 21:36:44;;;;;;;5.38;3.30;;;;;;;;;;10236929;28;20469;-84
2022/12/11 21:41:49;;;;;;;4.70;3.10;;;;;;;;;;10253676;28;20053;-90
2022/12/11 21:46:52;;;;;;;6.43;3.50;;;;;;;;;;10258028;28;20049;-87
2022/12/11 21:51:56;;;;;;;8.02;3.90;;;;;;;;;;10248753;28;20055;-87
2022/12/11 21:57:01;;;;;;;7.65;4.03;;;;;;;;;;10243625;28;20075;-84
2022/12/11 22:02:07;;;;;;;7.00;3.65;;;;;;;;;;10228786;28;20308;-84
2022/12/11 22:07:11;;;;;;;8.68;4.45;;;;;;;;;;10257060;28;20088;-84
2022/12/11 22:12:21;;;;;;;8.40;4.97;;;;;;;;;;10218782;28;20143;-83
2022/12/11 22:17:25;;;;;;;7.68;4.40;;;;;;;;;;10229010;28;20061;-84
2022/12/11 22:22:31;;;;;;;7.97;4.33;;;;;;;;;;10226269;28;20054;-84
2022/12/11 22:27:35;;;;;;;8.25;4.63;;;;;;;;;;10259455;28;20035;-88
2022/12/11 22:32:42;;;;;;;8.50;4.60;;;;;;;;;;10270756;28;20068;-89
2022/12/11 22:37:45;;;;;;;7.35;4.28;;;;;;;;;;10264525;28;20050;-86
2022/12/11 22:42:50;;;;;;;14.27;6.82;;;;;;;;;;10243024;28;20047;-86
2022/12/11 22:47:54;;;;;;;14.23;6.57;;;;;;;;;;10262248;28;20572;-90
2022/12/11 22:52:57;;;;;;;13.32;7.03;;;;;;;;;;10282152;28;20128;-90
2022/12/11 22:58:03;;;;;;;15.40;7.07;;;;;;;;;;10262727;28;20043;-87
2022/12/11 23:03:06;;;;;;;14.40;7.05;;;;;;;;;;10275532;28;20933;-87
2022/12/11 23:08:10;;;;;;;15.80;7.00;;;;;;;;;;10267483;28;20634;-90
2022/12/11 23:13:17;;;;;;;13.73;7.07;;;;;;;;;;10248776;28;20131;-88
2022/12/11 23:18:20;;;;;;;11.57;6.10;;;;;;;;;;10258244;28;20442;-87
2022/12/11 23:23:24;;;;;;;11.07;6.00;;;;;;;;;;10262357;28;20074;-90
2022/12/11 23:28:29;;;;;;;12.32;6.10;;;;;;;;;;10233574;28;20035;-84
2022/12/11 23:33:33;;;;;;;11.13;6.32;;;;;;;;;;10227206;28;20083;-84
2022/12/11 23:38:37;;;;;;;11.40;6.32;;;;;;;;;;10230816;28;20039;-84
2022/12/11 23:43:42;;;;;;;12.57;6.78;;;;;;;;;;10226850;28;20538;-84
2022/12/11 23:48:46;;;;;;;10.73;5.88;;;;;;;;;;10241006;28;20073;-85
2022/12/11 23:53:50;;;;;;;11.15;6.13;;;;;;;;;;10225894;28;20043;-85
2022/12/11 23:58:55;;;;;;;11.65;6.03;;;;;;;;;;10225961;28;20054;-85
